METAR Data
IDs: Format: Raw Decoded Include TAF

Data at: 1028 UTC 28 Sep 2021

METAR for:KBCT (Boca Raton Arpt, FL, US)
Text:KBCT 280253Z 06008KT 10SM SCT038 26/19 A3005
Temperature: 26.0°C ( 79°F)
Dewpoint: 19.0°C ( 66°F) [RH = 65%]
Pressure (altimeter):30.05 inches Hg (1017.7 mb)
Winds:from the ENE (60 degrees) at 9 MPH (8 knots; 4.1 m/s)
Visibility:10 or more sm (16+ km)
Ceiling:at least 12,000 feet AGL
Clouds: scattered clouds at 3800 feet AGL
Text:KBCT 280153Z 06008KT 10SM SCT041 27/19 A3005
Temperature: 27.0°C ( 81°F)
Dewpoint: 19.0°C ( 66°F) [RH = 62%]
Pressure (altimeter):30.05 inches Hg (1017.7 mb)
Winds:from the ENE (60 degrees) at 9 MPH (8 knots; 4.1 m/s)
Visibility:10 or more sm (16+ km)
Ceiling:at least 12,000 feet AGL
Clouds: scattered clouds at 4100 feet AGL
Text:KBCT 280053Z 06012KT 10SM SCT042 26/19 A3004
Temperature: 26.0°C ( 79°F)
Dewpoint: 19.0°C ( 66°F) [RH = 65%]
Pressure (altimeter):30.04 inches Hg (1017.4 mb)
Winds:from the ENE (60 degrees) at 14 MPH (12 knots; 6.2 m/s)
Visibility:10 or more sm (16+ km)
Ceiling:at least 12,000 feet AGL
Clouds: scattered clouds at 4200 feet AGL
Text:KBCT 272353Z 06012KT 10SM SCT040 27/20 A3003
Temperature: 27.0°C ( 81°F)
Dewpoint: 20.0°C ( 68°F) [RH = 66%]
Pressure (altimeter):30.03 inches Hg (1017.0 mb)
Winds:from the ENE (60 degrees) at 14 MPH (12 knots; 6.2 m/s)
Visibility:10 or more sm (16+ km)
Ceiling:at least 12,000 feet AGL
Clouds: scattered clouds at 4000 feet AGL
Text:KBCT 272253Z 06012KT 10SM SCT035 28/20 A3003
Temperature: 28.0°C ( 82°F)
Dewpoint: 20.0°C ( 68°F) [RH = 62%]
Pressure (altimeter):30.03 inches Hg (1017.0 mb)
Winds:from the ENE (60 degrees) at 14 MPH (12 knots; 6.2 m/s)
Visibility:10 or more sm (16+ km)
Ceiling:at least 12,000 feet AGL
Clouds: scattered clouds at 3500 feet AGL
Text:KBCT 272153Z 06012KT 10SM SCT035 29/21 A3002
Temperature: 29.0°C ( 84°F)
Dewpoint: 21.0°C ( 70°F) [RH = 62%]
Pressure (altimeter):30.02 inches Hg (1016.7 mb)
Winds:from the ENE (60 degrees) at 14 MPH (12 knots; 6.2 m/s)
Visibility:10 or more sm (16+ km)
Ceiling:at least 12,000 feet AGL
Clouds: scattered clouds at 3500 feet AGL
Text:KBCT 272053Z 06010G18KT 10SM SCT035 29/21 A3002
Temperature: 29.0°C ( 84°F)
Dewpoint: 21.0°C ( 70°F) [RH = 62%]
Pressure (altimeter):30.02 inches Hg (1016.7 mb)
Winds:from the ENE (60 degrees) at 12 MPH (10 knots; 5.1 m/s) gusting to 21 MPH (18 knots; 9.3 m/s)
Visibility:10 or more sm (16+ km)
Ceiling:at least 12,000 feet AGL
Clouds: scattered clouds at 3500 feet AGL
Text:KBCT 271953Z 06010G18KT 10SM SCT035 30/20 A3003
Temperature: 30.0°C ( 86°F)
Dewpoint: 20.0°C ( 68°F) [RH = 55%]
Pressure (altimeter):30.03 inches Hg (1017.0 mb)
Winds:from the ENE (60 degrees) at 12 MPH (10 knots; 5.1 m/s) gusting to 21 MPH (18 knots; 9.3 m/s)
Visibility:10 or more sm (16+ km)
Ceiling:at least 12,000 feet AGL
Clouds: scattered clouds at 3500 feet AGL
Text:KBCT 271853Z 06010G18KT 10SM SCT040 30/20 A3004
Temperature: 30.0°C ( 86°F)
Dewpoint: 20.0°C ( 68°F) [RH = 55%]
Pressure (altimeter):30.04 inches Hg (1017.4 mb)
Winds:from the ENE (60 degrees) at 12 MPH (10 knots; 5.1 m/s) gusting to 21 MPH (18 knots; 9.3 m/s)
Visibility:10 or more sm (16+ km)
Ceiling:at least 12,000 feet AGL
Clouds: scattered clouds at 4000 feet AGL
Text:KBCT 271753Z 02011G21KT 360V090 10SM FEW037 31/21 A3006
Temperature: 31.0°C ( 88°F)
Dewpoint: 21.0°C ( 70°F) [RH = 55%]
Pressure (altimeter):30.06 inches Hg (1018.0 mb)
Winds:from the NNE (20 degrees) at 13 MPH (11 knots; 5.7 m/s) gusting to 24 MPH (21 knots; 10.8 m/s)
Visibility:10 or more sm (16+ km)
Ceiling:at least 12,000 feet AGL
Clouds: few clouds at 3700 feet AGL
Text:KBCT 271653Z 03011G19KT 340V040 10SM FEW037 30/20 A3008
Temperature: 30.0°C ( 86°F)
Dewpoint: 20.0°C ( 68°F) [RH = 55%]
Pressure (altimeter):30.08 inches Hg (1018.7 mb)
Winds:from the NNE (30 degrees) at 13 MPH (11 knots; 5.7 m/s) gusting to 22 MPH (19 knots; 9.8 m/s)
Visibility:10 or more sm (16+ km)
Ceiling:at least 12,000 feet AGL
Clouds: few clouds at 3700 feet AGL
Text:KBCT 271553Z 02011G17KT 040V100 10SM CLR 30/20 A3009
Temperature: 30.0°C ( 86°F)
Dewpoint: 20.0°C ( 68°F) [RH = 55%]
Pressure (altimeter):30.09 inches Hg (1019.0 mb)
Winds:from the NNE (20 degrees) at 13 MPH (11 knots; 5.7 m/s) gusting to 20 MPH (17 knots; 8.7 m/s)
Visibility:10 or more sm (16+ km)
Ceiling:at least 12,000 feet AGL
Clouds:sky clear below 12,000 feet AGL
Text:KBCT 271453Z 08008G15KT 040V100 10SM CLR 30/19 A3009
Temperature: 30.0°C ( 86°F)
Dewpoint: 19.0°C ( 66°F) [RH = 52%]
Pressure (altimeter):30.09 inches Hg (1019.0 mb)
Winds:from the E (80 degrees) at 9 MPH (8 knots; 4.1 m/s) gusting to 17 MPH (15 knots; 7.7 m/s)
Visibility:10 or more sm (16+ km)
Ceiling:at least 12,000 feet AGL
Clouds:sky clear below 12,000 feet AGL
Text:KBCT 271353Z 02010KT 10SM CLR 29/19 A3009
Temperature: 29.0°C ( 84°F)
Dewpoint: 19.0°C ( 66°F) [RH = 55%]
Pressure (altimeter):30.09 inches Hg (1019.0 mb)
Winds:from the NNE (20 degrees) at 12 MPH (10 knots; 5.1 m/s)
Visibility:10 or more sm (16+ km)
Ceiling:at least 12,000 feet AGL
Clouds:sky clear below 12,000 feet AGL
Text:KBCT 271253Z 36009KT 10SM CLR 26/20 A3008
Temperature: 26.0°C ( 79°F)
Dewpoint: 20.0°C ( 68°F) [RH = 70%]
Pressure (altimeter):30.08 inches Hg (1018.7 mb)
Winds:from the N (360 degrees) at 10 MPH (9 knots; 4.6 m/s)
Visibility:10 or more sm (16+ km)
Ceiling:at least 12,000 feet AGL
Clouds:sky clear below 12,000 feet AGL
Text:KBCT 271153Z 02006KT 10SM CLR 24/20 A3007
Temperature: 24.0°C ( 75°F)
Dewpoint: 20.0°C ( 68°F) [RH = 78%]
Pressure (altimeter):30.07 inches Hg (1018.4 mb)
Winds:from the NNE (20 degrees) at 7 MPH (6 knots; 3.1 m/s)
Visibility:10 or more sm (16+ km)
Ceiling:at least 12,000 feet AGL
Clouds:sky clear below 12,000 feet AGL
Text:KBCT 271053Z 36005KT 10SM CLR 23/19 A3005
Temperature: 23.0°C ( 73°F)
Dewpoint: 19.0°C ( 66°F) [RH = 78%]
Pressure (altimeter):30.05 inches Hg (1017.7 mb)
Winds:from the N (360 degrees) at 6 MPH (5 knots; 2.6 m/s)
Visibility:10 or more sm (16+ km)
Ceiling:at least 12,000 feet AGL
Clouds:sky clear below 12,000 feet AGL
Text:KBCT 270253Z 06010KT 10SM FEW036 26/20 A3008
Temperature: 26.0°C ( 79°F)
Dewpoint: 20.0°C ( 68°F) [RH = 70%]
Pressure (altimeter):30.08 inches Hg (1018.7 mb)
Winds:from the ENE (60 degrees) at 12 MPH (10 knots; 5.1 m/s)
Visibility:10 or more sm (16+ km)
Ceiling:at least 12,000 feet AGL
Clouds: few clouds at 3600 feet AGL
Text:KBCT 270153Z 06010KT 10SM FEW039 27/20 A3007
Temperature: 27.0°C ( 81°F)
Dewpoint: 20.0°C ( 68°F) [RH = 66%]
Pressure (altimeter):30.07 inches Hg (1018.4 mb)
Winds:from the ENE (60 degrees) at 12 MPH (10 knots; 5.1 m/s)
Visibility:10 or more sm (16+ km)
Ceiling:at least 12,000 feet AGL
Clouds: few clouds at 3900 feet AGL
Text:KBCT 270053Z 06010KT 10SM FEW039 27/20 A3006
Temperature: 27.0°C ( 81°F)
Dewpoint: 20.0°C ( 68°F) [RH = 66%]
Pressure (altimeter):30.06 inches Hg (1018.0 mb)
Winds:from the ENE (60 degrees) at 12 MPH (10 knots; 5.1 m/s)
Visibility:10 or more sm (16+ km)
Ceiling:at least 12,000 feet AGL
Clouds: few clouds at 3900 feet AGL
Text:KBCT 262353Z 06012G17KT 10SM SCT037 27/20 A3005
Temperature: 27.0°C ( 81°F)
Dewpoint: 20.0°C ( 68°F) [RH = 66%]
Pressure (altimeter):30.05 inches Hg (1017.7 mb)
Winds:from the ENE (60 degrees) at 14 MPH (12 knots; 6.2 m/s) gusting to 20 MPH (17 knots; 8.7 m/s)
Visibility:10 or more sm (16+ km)
Ceiling:at least 12,000 feet AGL
Clouds: scattered clouds at 3700 feet AGL
Text:KBCT 262253Z 06012G22KT 10SM SCT038 27/20 A3005
Temperature: 27.0°C ( 81°F)
Dewpoint: 20.0°C ( 68°F) [RH = 66%]
Pressure (altimeter):30.05 inches Hg (1017.7 mb)
Winds:from the ENE (60 degrees) at 14 MPH (12 knots; 6.2 m/s) gusting to 25 MPH (22 knots; 11.3 m/s)
Visibility:10 or more sm (16+ km)
Ceiling:at least 12,000 feet AGL
Clouds: scattered clouds at 3800 feet AGL